createdAt,value
2023-04-15T00:03:35.689Z,8.60
2023-04-15T00:08:37.933Z,9.20
2023-04-15T00:13:40.429Z,9.30
2023-04-15T00:18:42.366Z,9.50
2023-04-15T00:23:44.289Z,10.10
2023-04-15T00:28:47.014Z,10.20
2023-04-15T00:33:49.873Z,10.60
2023-04-15T00:38:52.041Z,12.40
2023-04-15T00:43:56.800Z,12.10
2023-04-15T00:48:59.138Z,12.60
2023-04-15T00:54:06.321Z,12.40
2023-04-15T00:59:09.554Z,12.00
2023-04-15T01:04:12.477Z,12.40
2023-04-15T01:09:14.842Z,10.00
2023-04-15T01:14:17.462Z,9.60
2023-04-15T01:19:19.984Z,7.00
2023-04-15T01:24:24.133Z,6.00
2023-04-15T01:29:26.830Z,5.80
2023-04-15T01:34:29.059Z,4.60
2023-04-15T01:39:30.877Z,4.10
2023-04-15T01:44:33.093Z,4.70
2023-04-15T01:49:35.185Z,3.20
2023-04-15T01:54:37.837Z,2.80
2023-04-15T01:59:39.846Z,3.20
2023-04-15T02:04:41.846Z,3.90
2023-04-15T02:09:43.680Z,3.00
2023-04-15T02:14:46.301Z,3.00
2023-04-15T02:19:48.398Z,3.00
2023-04-15T02:24:51.017Z,3.70
2023-04-15T02:29:53.452Z,4.30
2023-04-15T02:34:55.915Z,4.40
2023-04-15T02:39:58.101Z,5.20
2023-04-15T02:45:00.027Z,7.20
2023-04-15T02:50:08.101Z,7.30
2023-04-15T02:55:11.201Z,8.70
2023-04-15T03:00:14.344Z,9.40
2023-04-15T03:05:18.071Z,9.70
2023-04-15T03:10:24.792Z,10.90
2023-04-15T03:15:27.266Z,10.80
2023-04-15T03:20:29.782Z,9.70
2023-04-15T03:25:32.350Z,9.60
2023-04-15T03:30:35.922Z,9.50
2023-04-15T03:35:38.483Z,10.30
2023-04-15T03:40:41.630Z,10.40
2023-04-15T03:45:43.925Z,9.70
2023-04-15T03:50:46.324Z,8.50
2023-04-15T03:55:48.674Z,8.30
2023-04-15T04:00:50.882Z,7.90
2023-04-15T04:05:52.874Z,9.30
2023-04-15T04:10:54.715Z,9.20
2023-04-15T04:15:57.271Z,8.80
2023-04-15T04:20:59.444Z,10.50
2023-04-15T04:26:02.672Z,9.90
2023-04-15T04:31:05.604Z,9.90
2023-04-15T04:36:07.896Z,10.50
2023-04-15T04:41:09.823Z,10.80
2023-04-15T04:46:12.971Z,11.60
2023-04-15T04:51:16.649Z,11.20
2023-04-15T04:56:19.156Z,11.90
2023-04-15T05:01:21.502Z,12.60
2023-04-15T05:06:28.546Z,12.80
2023-04-15T05:11:31.043Z,13.70
2023-04-15T05:16:33.271Z,13.30
2023-04-15T05:21:36.216Z,15.00
2023-04-15T05:26:39.710Z,13.30
2023-04-15T05:31:42.269Z,12.70
2023-04-15T05:36:44.843Z,12.50
2023-04-15T05:41:46.848Z,11.10
2023-04-15T05:46:48.919Z,10.40
2023-04-15T05:51:51.488Z,10.00
2023-04-15T05:56:54.250Z,9.40
2023-04-15T06:01:56.574Z,7.20
2023-04-15T06:06:58.628Z,8.20
2023-04-15T06:12:01.913Z,8.80
2023-04-15T06:17:04.246Z,7.80
2023-04-15T06:22:07.703Z,6.70
2023-04-15T06:27:09.737Z,20.20
2023-04-15T06:32:12.401Z,6.40
2023-04-15T06:37:16.954Z,5.30
2023-04-15T06:42:18.968Z,5.40
2023-04-15T06:47:21.787Z,5.90
2023-04-15T06:52:23.687Z,6.80
2023-04-15T06:57:26.044Z,5.50
2023-04-15T07:02:28.115Z,6.40
2023-04-15T07:07:30.508Z,3.70
2023-04-15T07:12:32.483Z,4.10
2023-04-15T07:17:34.604Z,3.60
2023-04-15T07:22:36.519Z,3.90
2023-04-15T07:27:38.914Z,3.80
2023-04-15T07:32:42.475Z,5.40
2023-04-15T07:37:45.131Z,5.50
2023-04-15T07:42:49.515Z,8.00
2023-04-15T07:47:51.608Z,6.00
2023-04-15T07:52:53.795Z,6.10
2023-04-15T07:57:56.589Z,5.60
2023-04-15T08:02:59.704Z,5.20
2023-04-15T08:08:02.005Z,5.50
2023-04-15T08:13:03.793Z,4.90
2023-04-15T08:18:06.542Z,4.90
2023-04-15T08:23:08.742Z,4.60
2023-04-15T08:28:10.772Z,4.50
2023-04-15T08:33:13.263Z,4.70
2023-04-15T08:38:15.711Z,4.30
2023-04-15T08:43:28.744Z,4.80
2023-04-15T08:48:35.020Z,4.00
2023-04-15T08:53:37.638Z,4.00
2023-04-15T08:58:40.384Z,3.50
2023-04-15T09:03:42.568Z,4.20
2023-04-15T09:08:45.000Z,3.80
2023-04-15T09:13:46.923Z,3.80
2023-04-15T09:18:48.963Z,3.80
2023-04-15T09:23:59.296Z,3.50
2023-04-15T09:29:13.625Z,3.60
2023-04-15T09:34:15.944Z,1.50
2023-04-15T09:39:18.124Z,2.10
2023-04-15T09:44:24.845Z,3.60
2023-04-15T09:49:27.547Z,1.50
2023-04-15T09:54:38.912Z,2.00
2023-04-15T09:59:41.069Z,1.80
2023-04-15T10:04:44.472Z,1.60
2023-04-15T10:09:47.136Z,1.20
2023-04-15T10:14:56.762Z,1.20
2023-04-15T10:20:01.831Z,1.20
2023-04-15T10:25:04.599Z,1.70
2023-04-15T10:30:09.087Z,1.80
2023-04-15T10:35:12.023Z,1.70
2023-04-15T10:40:33.668Z,1.90
2023-04-15T10:45:37.318Z,1.90
2023-04-15T10:50:39.545Z,6.20
2023-04-15T10:55:41.433Z,2.50
2023-04-15T11:00:52.808Z,2.00
2023-04-15T11:05:55.967Z,2.60
2023-04-15T11:10:57.911Z,2.00
2023-04-15T11:16:01.710Z,1.80
2023-04-15T11:21:06.962Z,2.00
2023-04-15T11:26:12.028Z,2.00
2023-04-15T11:31:18.137Z,1.80
2023-04-15T11:36:20.496Z,2.00
2023-04-15T11:41:23.643Z,2.10
2023-04-15T11:46:31.858Z,2.20
2023-04-15T11:51:35.232Z,2.00
2023-04-15T11:56:37.147Z,7.10
2023-04-15T12:01:40.048Z,2.50
2023-04-15T12:06:42.331Z,2.30
2023-04-15T12:11:52.006Z,2.20
2023-04-15T12:17:00.332Z,2.40
2023-04-15T12:22:10.167Z,2.20
2023-04-15T12:27:13.907Z,2.50
2023-04-15T12:32:17.590Z,2.30
2023-04-15T12:37:20.226Z,2.30
2023-04-15T12:42:23.731Z,2.30
2023-04-15T12:47:25.618Z,2.20
2023-04-15T12:52:27.722Z,2.60
2023-04-15T12:57:29.712Z,2.40
2023-04-15T13:02:32.779Z,2.40
2023-04-15T13:07:35.127Z,2.10
2023-04-15T13:12:37.347Z,2.10
2023-04-15T13:17:39.312Z,2.40
2023-04-15T13:22:42.695Z,2.60
2023-04-15T13:27:44.697Z,2.50
2023-04-15T13:32:48.780Z,2.40
2023-04-15T13:37:54.456Z,2.40
2023-04-15T13:42:57.800Z,2.80
2023-04-15T13:47:59.793Z,2.60
2023-04-15T13:53:02.225Z,2.20
2023-04-15T13:58:04.113Z,2.50
2023-04-15T14:03:07.131Z,2.70
2023-04-15T14:08:09.298Z,2.60
2023-04-15T14:13:11.389Z,3.00
2023-04-15T14:18:13.552Z,2.70
2023-04-15T14:23:16.140Z,3.10
2023-04-15T14:28:18.174Z,3.00
2023-04-15T14:33:20.419Z,2.80
2023-04-15T14:38:23.221Z,3.20
2023-04-15T14:43:25.874Z,3.10
2023-04-15T14:48:28.772Z,3.50
2023-04-15T14:53:32.296Z,2.80
2023-04-15T14:58:37.781Z,3.80
2023-04-15T15:03:40.524Z,2.90
2023-04-15T15:08:43.011Z,3.30
2023-04-15T15:13:45.422Z,3.20
2023-04-15T15:18:47.613Z,3.20
2023-04-15T15:23:49.589Z,3.50
2023-04-15T15:28:51.526Z,3.90
2023-04-15T15:33:53.696Z,3.90
2023-04-15T15:39:02.139Z,4.30
2023-04-15T15:44:17.559Z,4.80
2023-04-15T15:49:20.127Z,5.00
2023-04-15T15:54:26.418Z,4.90
2023-04-15T15:59:28.235Z,6.90
2023-04-15T16:04:30.616Z,5.20
2023-04-15T16:09:33.049Z,4.20
2023-04-15T16:14:35.098Z,3.70
2023-04-15T16:19:36.994Z,3.50
2023-04-15T16:24:39.497Z,3.90
2023-04-15T16:29:41.886Z,4.70
2023-04-15T16:34:43.993Z,4.90
2023-04-15T16:39:46.064Z,4.60
2023-04-15T16:44:48.677Z,4.50
2023-04-15T16:49:50.696Z,4.40
2023-04-15T16:54:53.155Z,3.60
2023-04-15T16:59:54.940Z,4.20
2023-04-15T17:04:57.796Z,6.40
2023-04-15T17:09:59.802Z,5.50
2023-04-15T17:15:01.932Z,4.20
2023-04-15T17:20:04.287Z,6.00
2023-04-15T17:25:07.370Z,5.90
2023-04-15T17:30:09.755Z,5.90
2023-04-15T17:35:12.442Z,5.30
2023-04-15T17:40:15.149Z,5.50
2023-04-15T17:45:17.250Z,5.40
2023-04-15T17:50:19.186Z,5.40
2023-04-15T17:55:22.273Z,4.70
2023-04-15T18:00:24.218Z,4.40
2023-04-15T18:05:26.857Z,6.00
2023-04-15T18:10:28.853Z,9.30
2023-04-15T18:15:31.672Z,7.90
2023-04-15T18:20:33.625Z,9.30
2023-04-15T18:25:38.382Z,7.40
2023-04-15T18:30:40.376Z,7.70
2023-04-15T18:35:43.102Z,7.80
2023-04-15T18:40:45.208Z,7.80
2023-04-15T18:45:47.360Z,8.10
2023-04-15T18:50:49.367Z,7.10
2023-04-15T18:55:51.631Z,7.30
2023-04-15T19:00:53.916Z,6.60
2023-04-15T19:05:57.329Z,5.90
2023-04-15T19:10:59.582Z,5.50
2023-04-15T19:16:01.661Z,5.90
2023-04-15T19:21:04.122Z,6.60
2023-04-15T19:26:08.362Z,7.60
2023-04-15T19:31:10.237Z,7.90
2023-04-15T19:36:12.575Z,11.40
2023-04-15T19:41:15.442Z,18.10
2023-04-15T19:46:17.691Z,16.00
2023-04-15T19:51:19.673Z,13.30
2023-04-15T19:56:23.908Z,12.30
2023-04-15T20:01:27.921Z,14.10
2023-04-15T20:06:30.449Z,14.70
2023-04-15T20:12:48.354Z,15.90
2023-04-15T20:16:54.633Z,16.10
2023-04-15T20:21:56.467Z,16.10
2023-04-15T20:26:58.536Z,15.70
2023-04-15T20:32:00.426Z,13.70
2023-04-15T20:37:02.317Z,13.30
2023-04-15T20:42:04.742Z,12.60
2023-04-15T20:47:07.767Z,11.80
2023-04-15T20:52:10.081Z,12.20
2023-04-15T20:57:12.145Z,12.00
2023-04-15T21:02:14.154Z,12.80
2023-04-15T21:07:17.041Z,13.00
2023-04-15T21:12:19.773Z,13.20
2023-04-15T21:17:23.436Z,13.70
2023-04-15T21:22:25.258Z,13.50
2023-04-15T21:27:27.236Z,13.70
2023-04-15T21:32:30.839Z,13.20
2023-04-15T21:37:32.853Z,14.00
2023-04-15T21:42:35.938Z,26.50
2023-04-15T21:48:00.694Z,26.90
2023-04-15T21:53:08.714Z,26.90
2023-04-15T21:58:11.066Z,26.00
2023-04-15T22:03:13.322Z,26.70
2023-04-15T22:08:16.064Z,28.20
2023-04-15T22:13:18.134Z,27.80
2023-04-15T22:18:20.310Z,27.90
2023-04-15T22:23:22.327Z,24.30
2023-04-15T22:28:24.358Z,23.10
2023-04-15T22:33:26.245Z,25.40
2023-04-15T22:38:28.371Z,25.80
2023-04-15T22:43:31.201Z,23.00
2023-04-15T22:48:34.798Z,25.20
2023-04-15T22:53:36.664Z,25.00
2023-04-15T22:58:38.763Z,25.70
2023-04-15T23:03:57.054Z,25.80
2023-04-15T23:09:03.734Z,24.20
2023-04-15T23:14:32.577Z,22.80
2023-04-15T23:19:34.648Z,22.20
2023-04-15T23:24:36.569Z,20.50
2023-04-15T23:29:38.966Z,20.40
2023-04-15T23:34:40.868Z,21.30
2023-04-15T23:39:43.498Z,22.60
2023-04-15T23:44:46.776Z,23.40
2023-04-15T23:49:57.495Z,21.50
2023-04-15T23:55:00.528Z,21.20
